Time;durP1;ratioP1;P1;durP2;ratioP2;P2;SDS_P1;SDS_P2;PMS_P1;PMS_P2;Temp;Humidity;BMP_temperature;BMP_pressure;BME280_temperature;BME280_humidity;BME280_pressure;Samples;Min_cycle;Max_cycle;Signal;HPM_P1;HPM_P2
2023/07/06 00:01:13;;;;;;;0.10;0.10;;;;;;;;;;5081316;28;20303;-78
2023/07/06 00:03:39;;;;;;;0.00;0.00;;;;;;;;;;5092009;28;20212;-78
2023/07/06 00:06:06;;;;;;;0.10;0.10;;;;;;;;;;5081034;28;20256;-78
2023/07/06 00:08:37;;;;;;;0.10;0.10;;;;;;;;;;5091820;28;20204;-78
2023/07/06 00:11:04;;;;;;;0.10;0.10;;;;;;;;;;5080917;28;20376;-78
2023/07/06 00:13:31;;;;;;;0.10;0.10;;;;;;;;;;5092170;28;20205;-78
2023/07/06 00:15:59;;;;;;;0.10;0.10;;;;;;;;;;5080252;28;20450;-78
2023/07/06 00:18:27;;;;;;;0.20;0.20;;;;;;;;;;5092736;28;20214;-78
2023/07/06 00:20:53;;;;;;;0.03;0.03;;;;;;;;;;5079354;28;20568;-78
2023/07/06 00:23:20;;;;;;;0.00;0.00;;;;;;;;;;5092669;28;20200;-78
2023/07/06 00:25:47;;;;;;;0.10;0.10;;;;;;;;;;5078539;28;20307;-79
2023/07/06 00:28:14;;;;;;;0.00;0.00;;;;;;;;;;5094335;28;20231;-78
2023/07/06 00:30:55;;;;;;;0.10;0.10;;;;;;;;;;5077433;28;20240;-79
2023/07/06 00:33:24;;;;;;;1.15;1.10;;;;;;;;;;5093164;28;20300;-78
2023/07/06 00:35:51;;;;;;;0.10;0.10;;;;;;;;;;5078894;28;20248;-79
2023/07/06 00:38:18;;;;;;;0.05;0.05;;;;;;;;;;5093599;28;20279;-78
2023/07/06 00:40:45;;;;;;;0.10;0.10;;;;;;;;;;5078225;28;20238;-78
2023/07/06 00:43:12;;;;;;;0.05;0.05;;;;;;;;;;5094326;28;20496;-78
2023/07/06 00:45:39;;;;;;;0.10;0.10;;;;;;;;;;5077495;28;20304;-78
2023/07/06 00:48:10;;;;;;;0.10;0.10;;;;;;;;;;5095027;28;20449;-78
2023/07/06 00:50:38;;;;;;;0.00;0.00;;;;;;;;;;5077091;28;20487;-78
2023/07/06 00:53:06;;;;;;;0.10;0.10;;;;;;;;;;5094928;28;20295;-78
2023/07/06 00:55:36;;;;;;;0.03;0.03;;;;;;;;;;5076211;28;20247;-79
2023/07/06 00:58:07;;;;;;;0.10;0.10;;;;;;;;;;5095234;28;20493;-79
2023/07/06 01:00:33;;;;;;;0.55;0.55;;;;;;;;;;5076565;28;20258;-78
2023/07/06 01:03:01;;;;;;;0.93;0.93;;;;;;;;;;5095521;28;20206;-79
2023/07/06 01:05:28;;;;;;;0.10;0.10;;;;;;;;;;5075565;28;20329;-79
2023/07/06 01:07:57;;;;;;;0.10;0.10;;;;;;;;;;5096335;28;20233;-79
2023/07/06 01:10:24;;;;;;;0.10;0.10;;;;;;;;;;5074961;28;20247;-78
2023/07/06 01:12:50;;;;;;;0.05;0.05;;;;;;;;;;5096692;28;20300;-79
2023/07/06 01:15:18;;;;;;;0.10;0.10;;;;;;;;;;5073940;28;20204;-79
2023/07/06 01:17:48;;;;;;;0.10;0.10;;;;;;;;;;5097348;28;20211;-78
2023/07/06 01:20:21;;;;;;;0.00;0.00;;;;;;;;;;5073989;28;20380;-78
2023/07/06 01:23:04;;;;;;;0.10;0.10;;;;;;;;;;5096909;28;20199;-78
2023/07/06 01:25:38;;;;;;;0.03;0.03;;;;;;;;;;5075912;28;20435;-79
2023/07/06 01:28:16;;;;;;;0.00;0.00;;;;;;;;;;5094760;28;20275;-79
2023/07/06 01:30:52;;;;;;;0.10;0.10;;;;;;;;;;5077404;28;20441;-79
2023/07/06 01:33:24;;;;;;;0.10;0.10;;;;;;;;;;5094019;28;20291;-79
2023/07/06 01:35:55;;;;;;;0.03;0.03;;;;;;;;;;5082274;28;20477;-79
2023/07/06 01:38:22;;;;;;;0.10;0.10;;;;;;;;;;5096363;28;20203;-78
2023/07/06 01:40:49;;;;;;;0.10;0.10;;;;;;;;;;5081849;28;20238;-79
2023/07/06 01:43:16;;;;;;;0.10;0.10;;;;;;;;;;5097115;28;20447;-79
2023/07/06 01:45:44;;;;;;;0.20;0.20;;;;;;;;;;5080670;28;20257;-79
2023/07/06 01:48:11;;;;;;;0.00;0.00;;;;;;;;;;5097679;28;20415;-79
2023/07/06 01:50:42;;;;;;;0.10;0.10;;;;;;;;;;5080345;28;20483;-79
2023/07/06 01:53:12;;;;;;;0.10;0.10;;;;;;;;;;5097632;28;20232;-79
2023/07/06 01:55:41;;;;;;;0.10;0.10;;;;;;;;;;5080343;28;20242;-79
2023/07/06 01:58:10;;;;;;;0.10;0.10;;;;;;;;;;5097689;28;20203;-79
2023/07/06 02:00:37;;;;;;;0.10;0.10;;;;;;;;;;5079653;28;20240;-79
2023/07/06 02:03:06;;;;;;;1.00;1.00;;;;;;;;;;5098125;28;20278;-79
2023/07/06 02:05:33;;;;;;;0.10;0.10;;;;;;;;;;5079402;28;20252;-78
2023/07/06 02:08:01;;;;;;;0.10;0.10;;;;;;;;;;5098513;28;20210;-79
2023/07/06 02:10:30;;;;;;;0.10;0.10;;;;;;;;;;5078982;28;20535;-78
2023/07/06 02:12:57;;;;;;;0.00;0.00;;;;;;;;;;5098877;28;20231;-79
2023/07/06 02:15:24;;;;;;;0.00;0.00;;;;;;;;;;5077850;28;20207;-78
2023/07/06 02:17:50;;;;;;;0.00;0.00;;;;;;;;;;5099699;28;20226;-79
2023/07/06 02:20:17;;;;;;;0.10;0.10;;;;;;;;;;5076749;28;20204;-78
2023/07/06 02:22:43;;;;;;;0.10;0.10;;;;;;;;;;5100497;28;20275;-79
2023/07/06 02:25:11;;;;;;;0.10;0.10;;;;;;;;;;5076020;28;20271;-79
2023/07/06 02:27:38;;;;;;;0.10;0.10;;;;;;;;;;5101299;28;20289;-78
2023/07/06 02:30:05;;;;;;;0.00;0.00;;;;;;;;;;5085994;28;20245;-79
2023/07/06 02:32:32;;;;;;;1.00;0.70;;;;;;;;;;5091067;28;20472;-79
2023/07/06 02:34:58;;;;;;;0.10;0.10;;;;;;;;;;5085837;28;20274;-79
2023/07/06 02:37:25;;;;;;;0.00;0.00;;;;;;;;;;5091265;28;20298;-79
2023/07/06 02:39:51;;;;;;;0.10;0.10;;;;;;;;;;5085480;28;20275;-79
2023/07/06 02:42:19;;;;;;;0.10;0.10;;;;;;;;;;5091040;28;20418;-78
2023/07/06 02:44:46;;;;;;;0.05;0.05;;;;;;;;;;5084572;28;20300;-79
2023/07/06 02:47:12;;;;;;;0.03;0.03;;;;;;;;;;5090831;28;20309;-80
2023/07/06 02:49:38;;;;;;;0.10;0.10;;;;;;;;;;5085626;28;20381;-80
2023/07/06 02:52:05;;;;;;;0.05;0.05;;;;;;;;;;5090150;28;20430;-80
2023/07/06 02:54:32;;;;;;;0.08;0.08;;;;;;;;;;5085458;28;20206;-79
2023/07/06 02:57:00;;;;;;;0.10;0.10;;;;;;;;;;5089433;28;20246;-80
2023/07/06 02:59:29;;;;;;;0.20;0.20;;;;;;;;;;5086270;28;20253;-80
2023/07/06 03:01:56;;;;;;;0.10;0.10;;;;;;;;;;5088917;28;20258;-80
2023/07/06 03:04:23;;;;;;;0.10;0.10;;;;;;;;;;5086505;28;20418;-80
2023/07/06 03:06:49;;;;;;;0.10;0.10;;;;;;;;;;5087973;28;20254;-80
2023/07/06 03:09:16;;;;;;;0.10;0.10;;;;;;;;;;5087542;28;20241;-80
2023/07/06 03:11:44;;;;;;;0.10;0.10;;;;;;;;;;5087357;28;20241;-80
2023/07/06 03:14:10;;;;;;;0.10;0.10;;;;;;;;;;5088054;28;20464;-80
2023/07/06 03:16:40;;;;;;;0.00;0.00;;;;;;;;;;5086313;28;20309;-80
2023/07/06 03:19:06;;;;;;;0.10;0.10;;;;;;;;;;5088507;28;20203;-79
2023/07/06 03:21:33;;;;;;;0.00;0.00;;;;;;;;;;5085815;28;20301;-80
2023/07/06 03:23:59;;;;;;;0.10;0.10;;;;;;;;;;5089095;28;20276;-79
2023/07/06 03:26:26;;;;;;;0.10;0.10;;;;;;;;;;5084710;28;20238;-80
2023/07/06 03:28:52;;;;;;;0.10;0.10;;;;;;;;;;5089992;28;20204;-80
2023/07/06 03:31:19;;;;;;;0.10;0.10;;;;;;;;;;5083683;28;20269;-80
2023/07/06 03:33:47;;;;;;;0.10;0.10;;;;;;;;;;5090732;28;20237;-79
2023/07/06 03:36:13;;;;;;;0.10;0.10;;;;;;;;;;5083101;28;20301;-80
2023/07/06 03:38:40;;;;;;;0.00;0.00;;;;;;;;;;5091494;28;20273;-80
2023/07/06 03:41:06;;;;;;;0.10;0.10;;;;;;;;;;5081999;28;20240;-80
2023/07/06 03:43:34;;;;;;;0.10;0.10;;;;;;;;;;5092371;28;20270;-80
2023/07/06 03:46:03;;;;;;;0.07;0.07;;;;;;;;;;5080859;28;20238;-80
2023/07/06 03:48:29;;;;;;;0.00;0.00;;;;;;;;;;5092763;28;20530;-80
2023/07/06 03:51:02;;;;;;;0.10;0.10;;;;;;;;;;5080343;28;20264;-80
2023/07/06 03:53:29;;;;;;;0.25;0.25;;;;;;;;;;5092678;28;20223;-80
2023/07/06 03:55:56;;;;;;;0.10;0.10;;;;;;;;;;5079939;28;20265;-79
2023/07/06 03:58:22;;;;;;;0.00;0.00;;;;;;;;;;5093909;28;20206;-80
2023/07/06 04:00:48;;;;;;;0.08;0.08;;;;;;;;;;5079004;28;20258;-80
2023/07/06 04:03:15;;;;;;;0.10;0.10;;;;;;;;;;5094037;28;20202;-80
2023/07/06 04:05:43;;;;;;;0.10;0.10;;;;;;;;;;5077309;28;20238;-80
2023/07/06 04:08:13;;;;;;;2.92;2.72;;;;;;;;;;5095352;28;20271;-80
2023/07/06 04:10:41;;;;;;;0.10;0.10;;;;;;;;;;5077973;28;20452;-80
2023/07/06 04:13:08;;;;;;;0.10;0.10;;;;;;;;;;5095083;28;20295;-80
2023/07/06 04:15:35;;;;;;;0.10;0.10;;;;;;;;;;5077201;28;20605;-80
2023/07/06 04:18:03;;;;;;;0.10;0.10;;;;;;;;;;5095929;28;20406;-80
2023/07/06 04:20:30;;;;;;;0.10;0.10;;;;;;;;;;5076207;28;20290;-80
2023/07/06 04:22:57;;;;;;;0.10;0.10;;;;;;;;;;5096524;28;20291;-80
2023/07/06 04:25:29;;;;;;;0.10;0.10;;;;;;;;;;5075345;28;20255;-80
2023/07/06 04:27:55;;;;;;;0.10;0.10;;;;;;;;;;5096640;28;20214;-80
2023/07/06 04:30:22;;;;;;;0.10;0.10;;;;;;;;;;5075061;28;20231;-80
2023/07/06 04:32:49;;;;;;;0.03;0.03;;;;;;;;;;5097452;28;20219;-80
2023/07/06 04:35:17;;;;;;;0.10;0.10;;;;;;;;;;5074525;28;20211;-79
2023/07/06 04:37:45;;;;;;;0.70;0.70;;;;;;;;;;5097836;28;20207;-80
2023/07/06 04:40:13;;;;;;;0.10;0.10;;;;;;;;;;5073981;28;20381;-78
2023/07/06 04:42:41;;;;;;;0.10;0.10;;;;;;;;;;5098518;28;20277;-80
2023/07/06 04:45:09;;;;;;;0.10;0.10;;;;;;;;;;5079661;28;20271;-79
2023/07/06 04:47:35;;;;;;;0.10;0.10;;;;;;;;;;5098998;28;20409;-80
2023/07/06 04:50:04;;;;;;;0.10;0.10;;;;;;;;;;5083682;28;20462;-80
2023/07/06 04:52:31;;;;;;;0.00;0.00;;;;;;;;;;5088803;28;20551;-80
2023/07/06 04:54:58;;;;;;;0.10;0.10;;;;;;;;;;5083325;28;20208;-80
2023/07/06 04:57:25;;;;;;;0.10;0.10;;;;;;;;;;5088817;28;20264;-80
2023/07/06 04:59:52;;;;;;;0.10;0.10;;;;;;;;;;5083395;28;20267;-80
2023/07/06 05:02:22;;;;;;;0.10;0.10;;;;;;;;;;5088787;28;20242;-79
2023/07/06 05:04:49;;;;;;;0.10;0.10;;;;;;;;;;5083188;28;20388;-79
2023/07/06 05:07:15;;;;;;;0.10;0.10;;;;;;;;;;5088580;28;20245;-79
2023/07/06 05:09:42;;;;;;;0.10;0.10;;;;;;;;;;5086969;28;20383;-80
2023/07/06 05:12:09;;;;;;;0.10;0.10;;;;;;;;;;5092696;28;20301;-80
2023/07/06 05:14:36;;;;;;;0.10;0.10;;;;;;;;;;5087316;28;20231;-80
2023/07/06 05:17:04;;;;;;;0.10;0.10;;;;;;;;;;5091925;28;20269;-80
2023/07/06 05:19:32;;;;;;;0.10;0.10;;;;;;;;;;5087726;28;20210;-80
2023/07/06 05:21:58;;;;;;;0.10;0.10;;;;;;;;;;5091233;28;20283;-80
2023/07/06 05:24:25;;;;;;;0.10;0.10;;;;;;;;;;5088246;28;20384;-79
2023/07/06 05:26:51;;;;;;;0.10;0.10;;;;;;;;;;5090353;28;20258;-80
2023/07/06 05:29:18;;;;;;;0.10;0.10;;;;;;;;;;5089082;28;20214;-80
2023/07/06 05:31:46;;;;;;;0.03;0.03;;;;;;;;;;5089064;28;20298;-79
2023/07/06 05:34:13;;;;;;;0.10;0.10;;;;;;;;;;5089713;28;20227;-80
2023/07/06 05:36:40;;;;;;;0.00;0.00;;;;;;;;;;5088463;28;20240;-79
2023/07/06 05:39:06;;;;;;;0.10;0.10;;;;;;;;;;5090124;28;20231;-80
2023/07/06 05:41:33;;;;;;;0.10;0.10;;;;;;;;;;5087469;28;20350;-80
2023/07/06 05:44:00;;;;;;;0.10;0.10;;;;;;;;;;5091114;28;20266;-80
2023/07/06 05:46:26;;;;;;;0.10;0.10;;;;;;;;;;5086710;28;20259;-80
2023/07/06 05:48:54;;;;;;;0.00;0.00;;;;;;;;;;5091969;28;20247;-80
2023/07/06 05:51:21;;;;;;;0.03;0.03;;;;;;;;;;5085613;28;20301;-80
2023/07/06 05:53:48;;;;;;;0.03;0.03;;;;;;;;;;5092529;28;20256;-80
2023/07/06 05:56:15;;;;;;;0.10;0.10;;;;;;;;;;5085040;28;20251;-80
2023/07/06 05:58:41;;;;;;;0.10;0.10;;;;;;;;;;5092985;28;20213;-80
2023/07/06 06:01:08;;;;;;;0.05;0.05;;;;;;;;;;5083428;28;20306;-80
2023/07/06 06:03:35;;;;;;;0.00;0.00;;;;;;;;;;5094673;28;20208;-80
2023/07/06 06:06:01;;;;;;;0.00;0.00;;;;;;;;;;5083014;28;20324;-80
2023/07/06 06:08:29;;;;;;;0.08;0.08;;;;;;;;;;5095093;28;20452;-80
2023/07/06 06:10:56;;;;;;;0.00;0.00;;;;;;;;;;5082203;28;20246;-80
2023/07/06 06:13:24;;;;;;;0.10;0.10;;;;;;;;;;5095453;28;20262;-80
2023/07/06 06:15:50;;;;;;;0.10;0.10;;;;;;;;;;5081158;28;20256;-80
2023/07/06 06:18:16;;;;;;;5.18;3.28;;;;;;;;;;5096302;28;20463;-80
2023/07/06 06:20:44;;;;;;;0.00;0.00;;;;;;;;;;5078934;28;20247;-80
2023/07/06 06:23:11;;;;;;;0.10;0.10;;;;;;;;;;5097032;28;20205;-79
2023/07/06 06:25:39;;;;;;;0.00;0.00;;;;;;;;;;5079377;28;20241;-80
2023/07/06 06:28:09;;;;;;;0.00;0.00;;;;;;;;;;5097710;28;20446;-80
2023/07/06 06:30:35;;;;;;;0.10;0.10;;;;;;;;;;5079071;28;20251;-80
2023/07/06 06:33:02;;;;;;;0.10;0.10;;;;;;;;;;5097749;28;20203;-80
2023/07/06 06:35:29;;;;;;;0.10;0.10;;;;;;;;;;5078344;28;20254;-80
2023/07/06 06:37:57;;;;;;;0.10;0.10;;;;;;;;;;5098401;28;20210;-80
2023/07/06 06:40:24;;;;;;;0.10;0.10;;;;;;;;;;5077394;28;20211;-79
2023/07/06 06:42:52;;;;;;;0.10;0.10;;;;;;;;;;5099142;28;20239;-80
2023/07/06 06:45:19;;;;;;;0.10;0.10;;;;;;;;;;5076815;28;20241;-79
2023/07/06 06:47:46;;;;;;;0.10;0.10;;;;;;;;;;5099697;28;20429;-80
2023/07/06 06:50:14;;;;;;;0.00;0.00;;;;;;;;;;5075581;28;20422;-79
2023/07/06 06:52:40;;;;;;;0.00;0.00;;;;;;;;;;5100441;28;20205;-79
2023/07/06 06:55:07;;;;;;;0.10;0.10;;;;;;;;;;5085413;28;20247;-80
2023/07/06 06:57:34;;;;;;;0.00;0.00;;;;;;;;;;5073807;28;20220;-80
2023/07/06 07:00:01;;;;;;;0.28;0.28;;;;;;;;;;5085023;28;20225;-79
2023/07/06 07:02:28;;;;;;;0.10;0.10;;;;;;;;;;5090773;28;20312;-80
2023/07/06 07:04:59;;;;;;;0.00;0.00;;;;;;;;;;5084893;28;20280;-79
2023/07/06 07:07:25;;;;;;;0.08;0.08;;;;;;;;;;5090695;28;20247;-80
2023/07/06 07:09:52;;;;;;;0.10;0.10;;;;;;;;;;5085178;28;20211;-79
2023/07/06 07:12:19;;;;;;;0.00;0.00;;;;;;;;;;5090326;28;20246;-80
2023/07/06 07:14:45;;;;;;;0.10;0.10;;;;;;;;;;5084768;28;20230;-78
2023/07/06 07:17:14;;;;;;;0.00;0.00;;;;;;;;;;5090233;28;20239;-80
2023/07/06 07:19:41;;;;;;;0.00;0.00;;;;;;;;;;5084987;28;20203;-80
2023/07/06 07:22:07;;;;;;;0.05;0.05;;;;;;;;;;5090125;28;20263;-80
2023/07/06 07:24:36;;;;;;;0.10;0.10;;;;;;;;;;5084940;28;20423;-80
2023/07/06 07:27:02;;;;;;;0.00;0.00;;;;;;;;;;5089187;28;20265;-79
2023/07/06 07:29:29;;;;;;;0.10;0.10;;;;;;;;;;5085450;28;20204;-80
2023/07/06 07:31:56;;;;;;;0.10;0.10;;;;;;;;;;5088041;28;20594;-80
2023/07/06 07:34:27;;;;;;;0.05;0.05;;;;;;;;;;5086073;28;20247;-80
2023/07/06 07:36:53;;;;;;;0.08;0.08;;;;;;;;;;5087954;28;20356;-80
2023/07/06 07:39:19;;;;;;;0.00;0.00;;;;;;;;;;5086146;28;20245;-80
2023/07/06 07:41:46;;;;;;;0.00;0.00;;;;;;;;;;5086713;28;20253;-80
2023/07/06 07:44:12;;;;;;;0.00;0.00;;;;;;;;;;5087068;28;20202;-79
2023/07/06 07:46:39;;;;;;;0.00;0.00;;;;;;;;;;5085899;28;20247;-79
2023/07/06 07:49:07;;;;;;;0.00;0.00;;;;;;;;;;5088028;28;20199;-80
2023/07/06 07:51:34;;;;;;;0.00;0.00;;;;;;;;;;5084805;28;20259;-79
2023/07/06 07:54:01;;;;;;;0.10;0.10;;;;;;;;;;5088547;28;20445;-80
2023/07/06 07:56:27;;;;;;;0.03;0.03;;;;;;;;;;5084336;28;20562;-79
2023/07/06 07:58:54;;;;;;;0.00;0.00;;;;;;;;;;5089485;28;20311;-79
2023/07/06 08:01:21;;;;;;;0.00;0.00;;;;;;;;;;5082878;28;20242;-80
2023/07/06 08:03:47;;;;;;;0.00;0.00;;;;;;;;;;5090141;28;20237;-79
2023/07/06 08:06:16;;;;;;;0.00;0.00;;;;;;;;;;5082507;28;20241;-80
2023/07/06 08:08:44;;;;;;;0.00;0.00;;;;;;;;;;5090830;28;20430;-80
2023/07/06 08:11:13;;;;;;;0.10;0.10;;;;;;;;;;5081735;28;20286;-80
2023/07/06 08:13:39;;;;;;;0.10;0.10;;;;;;;;;;5091063;28;20206;-80
2023/07/06 08:16:06;;;;;;;0.00;0.00;;;;;;;;;;5081212;28;20467;-79
2023/07/06 08:18:33;;;;;;;0.08;0.08;;;;;;;;;;5091807;28;20210;-79
2023/07/06 08:21:01;;;;;;;0.10;0.10;;;;;;;;;;5080474;28;20245;-80
2023/07/06 08:23:28;;;;;;;1.23;0.65;;;;;;;;;;5092460;28;20226;-80
2023/07/06 08:25:57;;;;;;;0.10;0.10;;;;;;;;;;5079736;28;20240;-79
2023/07/06 08:28:24;;;;;;;0.00;0.00;;;;;;;;;;5093165;28;20210;-80
2023/07/06 08:30:51;;;;;;;0.00;0.00;;;;;;;;;;5078759;28;20313;-80
2023/07/06 08:33:21;;;;;;;0.00;0.00;;;;;;;;;;5093519;28;20582;-80
2023/07/06 08:35:48;;;;;;;0.00;0.00;;;;;;;;;;5078494;28;20255;-80
2023/07/06 08:38:14;;;;;;;0.10;0.10;;;;;;;;;;5093935;28;20278;-80
2023/07/06 08:40:42;;;;;;;0.00;0.00;;;;;;;;;;5077450;28;20249;-80
2023/07/06 08:43:15;;;;;;;0.03;0.03;;;;;;;;;;5093676;28;20411;-80
2023/07/06 08:45:43;;;;;;;0.00;0.00;;;;;;;;;;5077621;28;20274;-80
2023/07/06 08:48:12;;;;;;;0.10;0.10;;;;;;;;;;5094507;28;20247;-80
2023/07/06 08:50:39;;;;;;;0.00;0.00;;;;;;;;;;5077427;28;20487;-80
2023/07/06 08:53:09;;;;;;;0.00;0.00;;;;;;;;;;5095046;28;20214;-80
2023/07/06 08:55:36;;;;;;;0.00;0.00;;;;;;;;;;5076973;28;20250;-80
2023/07/06 08:58:03;;;;;;;0.10;0.10;;;;;;;;;;5095261;28;20271;-80
2023/07/06 09:00:31;;;;;;;0.00;0.00;;;;;;;;;;5075878;28;20568;-73
2023/07/06 09:03:02;;;;;;;0.05;0.05;;;;;;;;;;5095804;28;20284;-73
2023/07/06 09:05:31;;;;;;;0.00;0.00;;;;;;;;;;5075698;28;20244;-73
2023/07/06 09:07:58;;;;;;;0.00;0.00;;;;;;;;;;5095572;28;20206;-73
2023/07/06 09:10:28;;;;;;;0.00;0.00;;;;;;;;;;5075244;28;20258;-71
2023/07/06 09:12:56;;;;;;;0.00;0.00;;;;;;;;;;5096352;28;20198;-73
2023/07/06 09:15:26;;;;;;;0.00;0.00;;;;;;;;;;5074892;28;20226;-73
2023/07/06 09:17:57;;;;;;;0.00;0.00;;;;;;;;;;5096458;28;20206;-73
2023/07/06 09:20:26;;;;;;;0.03;0.03;;;;;;;;;;5075075;28;20198;-73
2023/07/06 09:22:53;;;;;;;0.10;0.10;;;;;;;;;;5096512;28;20284;-73
2023/07/06 09:25:21;;;;;;;0.00;0.00;;;;;;;;;;5074433;28;20498;-73
2023/07/06 09:27:48;;;;;;;0.08;0.08;;;;;;;;;;5097029;28;20274;-73
2023/07/06 09:30:29;;;;;;;0.10;0.10;;;;;;;;;;5073761;28;20205;-73
2023/07/06 09:33:00;;;;;;;0.00;0.00;;;;;;;;;;5095860;28;20237;-73
2023/07/06 09:35:30;;;;;;;0.00;0.00;;;;;;;;;;5075061;28;20219;-73
2023/07/06 09:37:56;;;;;;;0.10;0.10;;;;;;;;;;5095831;28;20269;-73
2023/07/06 09:40:28;;;;;;;0.00;0.00;;;;;;;;;;5074663;28;20213;-73
2023/07/06 09:42:54;;;;;;;0.10;0.10;;;;;;;;;;5096176;28;20274;-73
2023/07/06 09:45:23;;;;;;;0.10;0.10;;;;;;;;;;5074165;28;20203;-72
2023/07/06 09:47:54;;;;;;;0.00;0.00;;;;;;;;;;5096708;28;20266;-73
2023/07/06 09:50:23;;;;;;;0.00;0.00;;;;;;;;;;5074467;28;20194;-73
2023/07/06 09:52:50;;;;;;;0.00;0.00;;;;;;;;;;5096577;28;20236;-71
2023/07/06 09:55:19;;;;;;;0.00;0.00;;;;;;;;;;5076236;28;20288;-71
2023/07/06 09:57:48;;;;;;;0.00;0.00;;;;;;;;;;5100706;28;20272;-73
2023/07/06 10:00:17;;;;;;;0.00;0.00;;;;;;;;;;5076919;28;20438;-74
2023/07/06 10:02:52;;;;;;;0.00;0.00;;;;;;;;;;5101049;28;20263;-74
2023/07/06 10:05:25;;;;;;;0.10;0.10;;;;;;;;;;5077300;28;20304;-74
2023/07/06 10:07:57;;;;;;;0.10;0.10;;;;;;;;;;5099418;28;20205;-73
2023/07/06 10:10:30;;;;;;;0.10;0.10;;;;;;;;;;5078003;28;20518;-71
2023/07/06 10:13:00;;;;;;;0.00;0.00;;;;;;;;;;5098990;28;20210;-72
2023/07/06 10:15:30;;;;;;;0.00;0.00;;;;;;;;;;5078177;28;20247;-72
2023/07/06 10:18:00;;;;;;;0.00;0.00;;;;;;;;;;5098841;28;20207;-72
2023/07/06 10:20:30;;;;;;;0.00;0.00;;;;;;;;;;5078153;28;20327;-71
2023/07/06 10:23:06;;;;;;;0.10;0.10;;;;;;;;;;5098478;28;20380;-71
2023/07/06 10:25:34;;;;;;;0.00;0.00;;;;;;;;;;5078943;28;20542;-72
2023/07/06 10:28:04;;;;;;;0.10;0.10;;;;;;;;;;5098181;28;20260;-72
2023/07/06 10:30:32;;;;;;;0.00;0.00;;;;;;;;;;5078926;28;20239;-72
2023/07/06 10:33:02;;;;;;;0.00;0.00;;;;;;;;;;5098335;28;20207;-72
2023/07/06 10:35:30;;;;;;;0.10;0.10;;;;;;;;;;5077797;28;20426;-72
2023/07/06 10:37:57;;;;;;;0.00;0.00;;;;;;;;;;5098682;28;20207;-72
2023/07/06 10:40:25;;;;;;;0.00;0.00;;;;;;;;;;5077497;28;20207;-72
2023/07/06 10:43:07;;;;;;;0.10;0.10;;;;;;;;;;5099108;28;20207;-71
2023/07/06 10:45:42;;;;;;;0.00;0.00;;;;;;;;;;5078464;28;20265;-71
2023/07/06 10:48:11;;;;;;;0.25;0.25;;;;;;;;;;5096704;28;20497;-71
2023/07/06 10:50:43;;;;;;;0.10;0.10;;;;;;;;;;5079028;28;20305;-71
2023/07/06 10:53:17;;;;;;;0.00;0.00;;;;;;;;;;5096565;28;20210;-72
2023/07/06 10:55:54;;;;;;;0.00;0.00;;;;;;;;;;5079551;28;20248;-70
2023/07/06 10:58:24;;;;;;;0.00;0.00;;;;;;;;;;5094934;28;20278;-71
2023/07/06 11:00:51;;;;;;;0.00;0.00;;;;;;;;;;5080582;28;20242;-72
2023/07/06 11:03:22;;;;;;;0.00;0.00;;;;;;;;;;5095200;28;20207;-71
2023/07/06 11:05:53;;;;;;;0.00;0.00;;;;;;;;;;5079297;28;20354;-72
2023/07/06 11:08:39;;;;;;;0.00;0.00;;;;;;;;;;5094905;28;20207;-72
2023/07/06 11:11:17;;;;;;;0.10;0.10;;;;;;;;;;5082526;28;20242;-72
2023/07/06 11:13:50;;;;;;;0.00;0.00;;;;;;;;;;5091649;28;20211;-72
2023/07/06 11:16:21;;;;;;;0.00;0.00;;;;;;;;;;5083533;28;20302;-72
2023/07/06 11:18:48;;;;;;;0.00;0.00;;;;;;;;;;5090978;28;20270;-72
2023/07/06 11:21:22;;;;;;;0.00;0.00;;;;;;;;;;5083444;28;20312;-75
2023/07/06 11:23:51;;;;;;;0.10;0.10;;;;;;;;;;5090670;28;20400;-72
2023/07/06 11:26:28;;;;;;;0.00;0.00;;;;;;;;;;5083399;28;20238;-71
2023/07/06 11:28:54;;;;;;;0.05;0.05;;;;;;;;;;5089932;28;20213;-72
2023/07/06 11:31:33;;;;;;;0.08;0.08;;;;;;;;;;5083945;28;20273;-72
2023/07/06 11:34:06;;;;;;;0.00;0.00;;;;;;;;;;5089075;28;20235;-72
2023/07/06 11:36:39;;;;;;;0.10;0.10;;;;;;;;;;5085225;28;20309;-72
2023/07/06 11:39:12;;;;;;;0.00;0.00;;;;;;;;;;5088335;28;20198;-72
2023/07/06 11:41:43;;;;;;;0.10;0.10;;;;;;;;;;5086045;28;20502;-72
2023/07/06 11:44:24;;;;;;;0.00;0.00;;;;;;;;;;5087944;28;20264;-72
2023/07/06 11:46:56;;;;;;;0.08;0.08;;;;;;;;;;5087364;28;20303;-72
2023/07/06 11:49:31;;;;;;;2.65;1.80;;;;;;;;;;5085870;28;20382;-72
2023/07/06 11:51:58;;;;;;;0.00;0.00;;;;;;;;;;5088128;28;20249;-72
2023/07/06 11:54:40;;;;;;;0.00;0.00;;;;;;;;;;5085560;28;20203;-72
2023/07/06 11:57:25;;;;;;;0.00;0.00;;;;;;;;;;5089148;28;20267;-72
2023/07/06 11:59:55;;;;;;;0.65;0.52;;;;;;;;;;5084210;28;20222;-72
2023/07/06 12:02:27;;;;;;;0.20;0.20;;;;;;;;;;5089575;28;20238;-73
2023/07/06 12:04:53;;;;;;;0.00;0.00;;;;;;;;;;5083841;28;20256;-73
2023/07/06 12:07:28;;;;;;;0.03;0.03;;;;;;;;;;5089251;28;20440;-72
2023/07/06 12:09:54;;;;;;;0.20;0.20;;;;;;;;;;5083762;28;20203;-72
2023/07/06 12:12:23;;;;;;;0.00;0.00;;;;;;;;;;5089325;28;20258;-73
2023/07/06 12:14:50;;;;;;;0.00;0.00;;;;;;;;;;5083601;28;20241;-73
2023/07/06 12:17:16;;;;;;;0.00;0.00;;;;;;;;;;5089159;28;20515;-73
2023/07/06 12:19:43;;;;;;;0.15;0.15;;;;;;;;;;5084003;28;20249;-73
2023/07/06 12:22:13;;;;;;;0.10;0.10;;;;;;;;;;5089133;28;20242;-73
2023/07/06 12:24:40;;;;;;;0.00;0.00;;;;;;;;;;5083678;28;20231;-73
2023/07/06 12:27:12;;;;;;;0.00;0.00;;;;;;;;;;5088760;28;20471;-73
2023/07/06 12:29:39;;;;;;;0.00;0.00;;;;;;;;;;5083991;28;20223;-73
2023/07/06 12:32:08;;;;;;;0.00;0.00;;;;;;;;;;5088606;28;20333;-73
2023/07/06 12:34:35;;;;;;;0.00;0.00;;;;;;;;;;5083818;28;20204;-73
2023/07/06 12:37:02;;;;;;;0.00;0.00;;;;;;;;;;5087840;28;20306;-73
2023/07/06 12:39:30;;;;;;;0.00;0.00;;;;;;;;;;5084536;28;20211;-73
2023/07/06 12:41:57;;;;;;;0.00;0.00;;;;;;;;;;5087171;28;20238;-73
2023/07/06 12:44:26;;;;;;;0.00;0.00;;;;;;;;;;5085257;28;20279;-73
2023/07/06 12:47:01;;;;;;;0.00;0.00;;;;;;;;;;5086785;28;20235;-73
2023/07/06 12:49:29;;;;;;;0.10;0.10;;;;;;;;;;5084724;28;20191;-73
2023/07/06 12:51:57;;;;;;;0.00;0.00;;;;;;;;;;5087259;28;20315;-72
2023/07/06 12:54:24;;;;;;;0.00;0.00;;;;;;;;;;5085008;28;20362;-73
2023/07/06 12:56:58;;;;;;;0.00;0.00;;;;;;;;;;5086255;28;20324;-73
2023/07/06 12:59:25;;;;;;;0.00;0.00;;;;;;;;;;5084715;28;20257;-73
2023/07/06 13:01:52;;;;;;;0.00;0.00;;;;;;;;;;5086588;28;20495;-73
2023/07/06 13:04:20;;;;;;;0.00;0.00;;;;;;;;;;5085193;28;20215;-73
2023/07/06 13:06:47;;;;;;;0.00;0.00;;;;;;;;;;5085784;28;20253;-73
2023/07/06 13:09:15;;;;;;;0.00;0.00;;;;;;;;;;5085819;28;20206;-73
2023/07/06 13:11:46;;;;;;;0.00;0.00;;;;;;;;;;5084835;28;20243;-73
2023/07/06 13:14:15;;;;;;;0.00;0.00;;;;;;;;;;5087658;28;20192;-73
2023/07/06 13:16:43;;;;;;;0.98;0.98;;;;;;;;;;5085148;28;20480;-73
2023/07/06 13:19:09;;;;;;;0.00;0.00;;;;;;;;;;5086525;28;20394;-73
2023/07/06 13:21:40;;;;;;;2.55;0.70;;;;;;;;;;5084624;28;20606;-73
2023/07/06 13:24:10;;;;;;;0.00;0.00;;;;;;;;;;5086886;28;20191;-73
2023/07/06 13:26:36;;;;;;;0.00;0.00;;;;;;;;;;5084700;28;20302;-73
2023/07/06 13:29:03;;;;;;;0.00;0.00;;;;;;;;;;5088021;28;20275;-73
2023/07/06 13:31:30;;;;;;;0.00;0.00;;;;;;;;;;5087419;28;20246;-73
2023/07/06 13:33:56;;;;;;;0.00;0.00;;;;;;;;;;5091917;28;20455;-73
2023/07/06 13:36:25;;;;;;;0.03;0.03;;;;;;;;;;5086456;28;20445;-73
2023/07/06 13:38:53;;;;;;;0.00;0.00;;;;;;;;;;5092381;28;20405;-73
2023/07/06 13:41:20;;;;;;;0.00;0.00;;;;;;;;;;5085802;28;20254;-73
2023/07/06 13:43:47;;;;;;;0.00;0.00;;;;;;;;;;5092928;28;20361;-73
2023/07/06 13:46:14;;;;;;;0.00;0.00;;;;;;;;;;5085072;28;20418;-73
2023/07/06 13:48:40;;;;;;;0.00;0.00;;;;;;;;;;5093641;28;20238;-73
2023/07/06 13:51:07;;;;;;;0.00;0.00;;;;;;;;;;5084183;28;20261;-72
2023/07/06 13:53:33;;;;;;;0.00;0.00;;;;;;;;;;5094437;28;20271;-73
2023/07/06 13:56:01;;;;;;;0.00;0.00;;;;;;;;;;5083053;28;20234;-73
2023/07/06 13:58:29;;;;;;;0.00;0.00;;;;;;;;;;5095246;28;20294;-73
2023/07/06 14:00:55;;;;;;;0.00;0.00;;;;;;;;;;5082306;28;20265;-73
2023/07/06 14:03:23;;;;;;;0.00;0.00;;;;;;;;;;5095513;28;20211;-73
2023/07/06 14:05:51;;;;;;;0.00;0.00;;;;;;;;;;5081401;28;20273;-73
2023/07/06 14:08:19;;;;;;;0.00;0.00;;;;;;;;;;5096214;28;20242;-73
2023/07/06 14:10:45;;;;;;;0.00;0.00;;;;;;;;;;5080923;28;20510;-73
2023/07/06 14:13:14;;;;;;;0.10;0.10;;;;;;;;;;5096895;28;20210;-72
2023/07/06 14:15:41;;;;;;;0.10;0.10;;;;;;;;;;5079851;28;20240;-72
2023/07/06 14:18:08;;;;;;;0.00;0.00;;;;;;;;;;5097286;28;20278;-73
2023/07/06 14:20:35;;;;;;;0.00;0.00;;;;;;;;;;5079126;28;20280;-73
2023/07/06 14:23:01;;;;;;;0.00;0.00;;;;;;;;;;5098165;28;20231;-73
2023/07/06 14:25:28;;;;;;;0.00;0.00;;;;;;;;;;5078252;28;20244;-73
2023/07/06 14:27:55;;;;;;;0.00;0.00;;;;;;;;;;5098755;28;20270;-73
2023/07/06 14:30:26;;;;;;;0.00;0.00;;;;;;;;;;5077564;28;20203;-73
2023/07/06 14:32:52;;;;;;;0.00;0.00;;;;;;;;;;5099158;28;20207;-73
2023/07/06 14:35:19;;;;;;;0.00;0.00;;;;;;;;;;5076784;28;20275;-73
2023/07/06 14:37:45;;;;;;;0.10;0.10;;;;;;;;;;5099877;28;20295;-72
2023/07/06 14:40:12;;;;;;;0.00;0.00;;;;;;;;;;5075594;28;20384;-73
2023/07/06 14:42:39;;;;;;;0.00;0.00;;;;;;;;;;5100236;28;20203;-73
2023/07/06 14:45:06;;;;;;;0.00;0.00;;;;;;;;;;5085513;28;20203;-73
2023/07/06 14:47:33;;;;;;;0.00;0.00;;;;;;;;;;5091004;28;20241;-73
2023/07/06 14:50:00;;;;;;;0.05;0.05;;;;;;;;;;5085728;28;20394;-73